LIPZ/VCE METAR and TAF weather

Enter ICAO airport designator
Station Type Date Time Source
LIPZ METAR 2020/11/25 22:50 UTC NOAA

LIPZ 252250Z 29002KT 7000 NSC 03/02 Q1025 NOSIG


Station Type Date Time Source
LIPZ Decoded METAR 2020/11/25 22:50 UTC NOAA

Venezia / Tessera, Italy (LIPZ) 45-30N 012-20E 6M
Nov 25, 2020 - 05:50 PM EST / 2020.11.25 2250 UTC
Wind: from the WNW (290 degrees) at 2 MPH (2 KT):0
Visibility: 4 mile(s):0
Temperature: 37 F (3 C)
Dew Point: 35 F (2 C)
Relative Humidity: 93%
Pressure (altimeter): 30.27 in. Hg (1025 hPa)
ob: LIPZ 252250Z 29002KT 7000 NSC 03/02 Q1025 NOSIG
cycle: 23

Station Type Date Time Source
LIPZ TAF 2020/11/25 18:26 UTC NOAA

TAF LIPZ 251700Z 2518/2624 VRB05KT CAVOK
TEMPO 2600/2607 2000 BCFG

Example: see airport list